メインページ
METAR-TAF:

METAR-TAF

空港 :

バンダレ・アッバース国際空港

バンダレ・アッバース, イラン

緯度: 27-13N, 経度: 056-22E, 海抜: 10m

現時点の気象観測

当レポートは18分前の06:00(UTC)に作成
北東の風 4kt
気温 30°C
湿度 35%
気圧 1015 hPa
視程: 8000m

METAR: OIKB 040600Z 05004KT 8000 NSC 30/13 Q1014 A2996 NOSIG

時間: 10:48 (06:18 UTC)

予報

当レポートは48分前の05:30(UTC)に作成
予報は04日の 06時(UTC)から 05日の 12時(UTC)まで有効
北/北東の風 6kt
視程: 7000m
04日の 11時(UTC)から 04日の 16時(UTC)まで一時的に
の風 18kt
04日の 21時(UTC)から 04日の 23時(UTC)まで徐々に
視程: 3000m
04日の 24時(UTC)から 05日の 03時(UTC)まで一時的に
視程: 1000m
確率 40%
間 05から00 UTC
05日の 05時(UTC)から 05日の 07時(UTC)まで徐々に
視程: 6000m

TAF: OIKB 040530Z 0406/0512 02006KT 7000 NSC TEMPO 0411/0416 18018KT BECMG 0421/0423 3000 BR/HZ TEMPO 0424/0503 1000 BR PROB40 0500 FG BECMG 0505/0507 6000 NSC

4,000以上の空港の気象観測と天気予報(METAR報とTAF報)

利用可能な観測所は地図上に黄色い丸と赤い丸で示す。

丸の上にカーソルを重ねると観測所名を参照できる。

次にクリックすると気象観測と天気予報を参照できる。

マップの切り替え:黒色「×」印の緑ボタンをクリックして拡大、「-」印の緑ボタンをクリックして縮小、緑色の三角印をクリックして隣りの地図に切り替え


METAR-TAF: